Time;durP1;ratioP1;P1;durP2;ratioP2;P2;SDS_P1;SDS_P2;PMS_P1;PMS_P2;Temp;Humidity;BMP_temperature;BMP_pressure;BME280_temperature;BME280_humidity;BME280_pressure;Samples;Min_cycle;Max_cycle;Signal;HPM_P1;HPM_P2
2022/04/11 00:01:21;;;;;;;5.60;2.50;;;6.30;74.50;;;;;;5095521;28;20028;-81
2022/04/11 00:03:47;;;;;;;4.63;2.13;;;6.30;74.80;;;;;;5095298;28;20048;-81
2022/04/11 00:06:13;;;;;;;9.03;2.67;;;6.30;75.10;;;;;;5095923;28;20066;-81
2022/04/11 00:08:39;;;;;;;6.03;2.70;;;6.20;75.20;;;;;;5060557;28;20031;-81
2022/04/11 00:11:05;;;;;;;5.57;2.53;;;6.20;75.40;;;;;;5095258;28;20085;-81
2022/04/11 00:13:30;;;;;;;5.80;2.10;;;6.20;75.60;;;;;;5077231;28;20028;-81
2022/04/11 00:15:56;;;;;;;6.13;2.63;;;6.20;75.70;;;;;;5077150;28;20058;-81
2022/04/11 00:18:21;;;;;;;6.83;2.60;;;6.20;75.90;;;;;;5077012;28;20028;-81
2022/04/11 00:20:47;;;;;;;6.53;2.30;;;6.30;76.10;;;;;;5095053;28;20044;-81
2022/04/11 00:23:13;;;;;;;10.57;2.67;;;6.20;76.30;;;;;;5077095;28;20063;-82
2022/04/11 00:25:39;;;;;;;6.27;2.17;;;6.10;76.50;;;;;;5060397;28;20085;-81
2022/04/11 00:28:05;;;;;;;6.27;2.93;;;6.10;76.60;;;;;;5060448;28;20425;-81
2022/04/11 00:30:31;;;;;;;7.27;3.10;;;6.10;76.70;;;;;;5087727;28;20038;-81
2022/04/11 00:33:27;;;;;;;6.20;2.60;;;6.10;76.90;;;;;;5071734;28;20025;-82
2022/04/11 00:35:52;;;;;;;4.43;2.20;;;6.10;77.10;;;;;;5058951;28;20406;-81
2022/04/11 00:38:18;;;;;;;5.33;2.40;;;6.10;77.20;;;;;;5056722;28;20028;-82
2022/04/11 00:40:43;;;;;;;7.77;2.80;;;6.10;77.30;;;;;;5074255;28;20480;-81
2022/04/11 00:43:09;;;;;;;10.70;3.23;;;6.10;77.50;;;;;;5039776;28;20040;-81
2022/04/11 00:45:34;;;;;;;7.87;2.90;;;6.00;77.60;;;;;;5074339;28;20435;-82
2022/04/11 00:48:00;;;;;;;6.10;2.67;;;6.00;77.80;;;;;;5074149;28;20025;-81
2022/04/11 00:50:28;;;;;;;7.53;2.60;;;6.00;78.00;;;;;;5039813;28;20029;-82
2022/04/11 00:52:55;;;;;;;9.73;3.03;;;6.00;78.10;;;;;;5056165;28;20119;-81
2022/04/11 00:55:23;;;;;;;7.93;3.53;;;6.00;78.00;;;;;;5056178;28;20411;-81
2022/04/11 00:57:49;;;;;;;7.50;3.13;;;6.00;78.10;;;;;;5074417;28;20036;-81
2022/04/11 01:00:15;;;;;;;7.30;3.23;;;6.00;78.20;;;;;;5056752;28;20033;-82
2022/04/11 01:02:41;;;;;;;5.77;3.27;;;6.00;78.10;;;;;;5073981;28;20063;-81
2022/04/11 01:05:09;;;;;;;7.70;2.60;;;6.00;78.10;;;;;;5073743;28;20489;-81
2022/04/11 01:07:39;;;;;;;6.10;2.90;;;6.00;78.10;;;;;;5039722;28;20096;-81
2022/04/11 01:10:06;;;;;;;6.50;2.53;;;6.00;78.20;;;;;;5074058;28;20032;-81
2022/04/11 01:12:32;;;;;;;7.33;3.10;;;6.00;78.30;;;;;;5056333;28;20028;-81
2022/04/11 01:14:58;;;;;;;9.10;2.87;;;6.00;78.40;;;;;;5055863;28;20388;-81
2022/04/11 01:17:35;;;;;;;9.57;2.97;;;6.00;78.40;;;;;;5055569;28;20111;-81
2022/04/11 01:20:12;;;;;;;8.43;3.37;;;6.00;78.40;;;;;;5055273;28;20028;-81
2022/04/11 01:22:39;;;;;;;7.73;3.30;;;6.00;78.50;;;;;;5055535;28;20108;-81
2022/04/11 01:25:05;;;;;;;10.60;4.07;;;6.10;78.60;;;;;;5055969;28;20107;-81
2022/04/11 01:27:31;;;;;;;9.97;3.07;;;6.10;78.60;;;;;;5073489;28;20156;-81
2022/04/11 01:29:58;;;;;;;6.77;3.43;;;6.10;78.60;;;;;;5039263;28;20021;-81
2022/04/11 01:32:23;;;;;;;7.70;3.13;;;6.10;78.70;;;;;;5055634;28;20058;-80
2022/04/11 01:34:49;;;;;;;7.47;3.43;;;6.20;78.80;;;;;;5056159;28;20024;-81
2022/04/11 01:37:15;;;;;;;10.10;3.40;;;6.10;78.80;;;;;;5073576;28;20056;-81
2022/04/11 01:39:41;;;;;;;6.20;2.93;;;6.10;78.80;;;;;;5073695;28;20020;-81
2022/04/11 01:42:07;;;;;;;6.33;3.13;;;6.10;78.80;;;;;;5055830;28;20040;-82
2022/04/11 01:44:32;;;;;;;6.33;2.77;;;6.10;78.80;;;;;;5055585;28;20059;-82
2022/04/11 01:46:58;;;;;;;8.00;3.07;;;6.10;78.80;;;;;;5055586;28;20035;-81
2022/04/11 01:49:24;;;;;;;7.03;3.20;;;6.10;79.00;;;;;;5073600;28;20099;-82
2022/04/11 01:51:49;;;;;;;9.77;3.43;;;6.20;78.90;;;;;;5038785;28;20028;-81
2022/04/11 01:54:15;;;;;;;8.33;2.90;;;6.20;78.90;;;;;;5055532;28;20032;-82
2022/04/11 01:56:41;;;;;;;9.60;3.77;;;6.20;78.90;;;;;;5055576;28;20547;-81
2022/04/11 01:59:06;;;;;;;12.57;3.00;;;6.10;78.90;;;;;;5055376;28;20032;-81
2022/04/11 02:01:32;;;;;;;10.07;3.17;;;6.00;78.80;;;;;;5038670;28;20139;-81
2022/04/11 02:03:57;;;;;;;7.17;3.37;;;6.10;79.50;;;;;;5043440;28;20464;-81
2022/04/11 02:06:23;;;;;;;7.60;3.47;;;6.10;78.90;;;;;;5032009;28;20029;-82
2022/04/11 02:08:49;;;;;;;9.00;4.07;;;6.10;79.00;;;;;;5033134;28;20486;-81
2022/04/11 02:11:14;;;;;;;7.10;3.73;;;6.00;79.00;;;;;;5033128;28;20466;-81
2022/04/11 02:13:41;;;;;;;8.03;3.37;;;6.10;79.30;;;;;;5031990;28;20029;-81
2022/04/11 02:16:06;;;;;;;7.93;3.67;;;6.00;79.20;;;;;;5031965;28;20033;-81
2022/04/11 02:18:32;;;;;;;9.40;3.77;;;6.00;79.30;;;;;;5031881;28;20095;-81
2022/04/11 02:20:58;;;;;;;7.63;3.63;;;6.10;79.50;;;;;;5032014;28;20095;-81
2022/04/11 02:23:23;;;;;;;7.10;3.47;;;6.00;79.40;;;;;;5031901;28;20034;-81
2022/04/11 02:25:49;;;;;;;10.47;4.10;;;6.00;79.40;;;;;;5031959;28;20021;-81
2022/04/11 02:28:15;;;;;;;7.20;3.60;;;6.10;79.50;;;;;;5031816;28;20030;-82
2022/04/11 02:30:40;;;;;;;10.53;4.27;;;6.00;79.60;;;;;;5034614;28;20417;-80
2022/04/11 02:33:06;;;;;;;7.50;3.07;;;6.00;79.60;;;;;;5035869;28;20038;-81
2022/04/11 02:35:33;;;;;;;7.43;2.93;;;6.10;79.70;;;;;;5019323;28;20030;-81
2022/04/11 02:37:58;;;;;;;6.83;3.20;;;5.90;79.70;;;;;;5035569;28;20026;-82
2022/04/11 02:40:24;;;;;;;6.80;3.67;;;5.90;79.80;;;;;;5036994;28;20041;-81
2022/04/11 02:42:49;;;;;;;8.40;3.40;;;5.90;79.80;;;;;;5036722;28;20061;-81
2022/04/11 02:45:16;;;;;;;11.00;3.93;;;5.90;79.90;;;;;;5036854;28;20367;-81
2022/04/11 02:47:42;;;;;;;9.43;3.80;;;5.80;79.90;;;;;;5036760;28;20040;-81
2022/04/11 02:50:09;;;;;;;7.50;3.87;;;5.80;79.90;;;;;;5035580;28;20030;-81
2022/04/11 02:52:35;;;;;;;7.77;4.03;;;5.80;80.00;;;;;;5035340;28;20029;-81
2022/04/11 02:55:01;;;;;;;10.60;4.17;;;5.80;80.10;;;;;;5035223;28;20026;-81
2022/04/11 02:57:27;;;;;;;8.00;3.87;;;5.80;80.10;;;;;;5036509;28;20053;-81
2022/04/11 02:59:53;;;;;;;8.27;3.37;;;5.80;80.20;;;;;;5035267;28;20034;-81
2022/04/11 03:02:19;;;;;;;6.97;3.73;;;5.70;80.20;;;;;;5036228;28;20029;-81
2022/04/11 03:04:45;;;;;;;8.33;3.57;;;5.70;80.20;;;;;;5057212;28;20083;-81
2022/04/11 03:07:11;;;;;;;8.20;4.07;;;5.80;80.30;;;;;;5041971;28;20048;-81
2022/04/11 03:09:37;;;;;;;7.43;4.10;;;5.70;80.40;;;;;;5041896;28;20021;-81
2022/04/11 03:12:03;;;;;;;7.97;3.83;;;5.70;80.50;;;;;;5058426;28;20043;-81
2022/04/11 03:14:30;;;;;;;6.50;3.50;;;5.60;80.50;;;;;;5058228;28;20024;-81
2022/04/11 03:16:56;;;;;;;9.40;3.93;;;5.60;80.70;;;;;;5041454;28;20028;-81
2022/04/11 03:19:21;;;;;;;10.23;4.47;;;5.60;80.80;;;;;;5075949;28;20031;-81
2022/04/11 03:21:47;;;;;;;8.87;3.97;;;5.50;80.80;;;;;;5058477;28;20035;-81
2022/04/11 03:24:13;;;;;;;7.03;3.47;;;5.50;80.80;;;;;;5058231;28;20060;-81
2022/04/11 03:26:38;;;;;;;9.33;4.03;;;5.50;80.80;;;;;;5058090;28;20021;-81
2022/04/11 03:29:04;;;;;;;8.63;4.20;;;5.40;80.90;;;;;;5076061;28;20424;-81
2022/04/11 03:31:30;;;;;;;11.07;3.93;;;5.40;81.00;;;;;;5075904;28;20032;-81
2022/04/11 03:33:56;;;;;;;7.77;4.03;;;5.40;81.00;;;;;;5075726;28;20025;-81
2022/04/11 03:36:22;;;;;;;8.83;4.20;;;5.40;81.00;;;;;;5075687;28;20027;-81
2022/04/11 03:38:49;;;;;;;9.07;4.57;;;5.40;81.20;;;;;;5041092;28;20028;-82
2022/04/11 03:41:14;;;;;;;7.63;4.17;;;5.30;81.80;;;;;;5057129;28;20385;-81
2022/04/11 03:43:40;;;;;;;8.83;4.23;;;5.30;81.30;;;;;;5057459;28;20035;-81
2022/04/11 03:46:06;;;;;;;8.73;4.67;;;5.30;81.30;;;;;;5057525;28;20031;-81
2022/04/11 03:48:31;;;;;;;8.87;4.27;;;5.20;81.40;;;;;;5057724;28;20052;-82
2022/04/11 03:50:57;;;;;;;9.47;5.07;;;5.10;81.50;;;;;;5057524;28;20477;-81
2022/04/11 03:53:22;;;;;;;9.73;4.57;;;5.20;81.60;;;;;;5057611;28;20032;-81
2022/04/11 03:55:48;;;;;;;9.00;4.90;;;5.10;81.50;;;;;;5075239;28;20123;-81
2022/04/11 03:58:14;;;;;;;8.70;4.73;;;5.20;81.70;;;;;;5057341;28;20041;-81
2022/04/11 04:00:39;;;;;;;7.77;4.43;;;5.10;81.80;;;;;;5057431;28;20042;-80
2022/04/11 04:03:12;;;;;;;8.97;4.60;;;5.00;81.80;;;;;;5040636;28;20123;-81
2022/04/11 04:05:42;;;;;;;14.17;5.87;;;5.00;81.90;;;;;;5075062;28;20041;-80
2022/04/11 04:08:09;;;;;;;11.10;4.73;;;5.00;82.00;;;;;;5057268;28;20025;-81
2022/04/11 04:10:34;;;;;;;8.27;4.90;;;4.90;82.10;;;;;;5075118;28;20024;-81
2022/04/11 04:13:01;;;;;;;10.90;4.53;;;4.90;82.20;;;;;;5075062;28;20039;-81
2022/04/11 04:15:26;;;;;;;10.87;5.33;;;5.00;82.40;;;;;;5057306;28;20056;-81
2022/04/11 04:17:53;;;;;;;8.73;4.87;;;4.90;82.50;;;;;;5074822;28;20064;-80
2022/04/11 04:20:19;;;;;;;13.47;5.87;;;4.80;82.60;;;;;;5074892;28;20111;-81
2022/04/11 04:22:44;;;;;;;10.60;5.23;;;4.90;82.70;;;;;;5074726;28;20050;-81
2022/04/11 04:25:10;;;;;;;10.83;4.77;;;4.90;82.90;;;;;;5056859;28;20441;-81
2022/04/11 04:27:36;;;;;;;14.27;5.53;;;4.90;83.00;;;;;;5056701;28;20066;-81
2022/04/11 04:30:02;;;;;;;9.93;4.97;;;4.90;83.10;;;;;;5057661;28;20032;-81
2022/04/11 04:32:28;;;;;;;11.03;4.93;;;4.90;83.20;;;;;;5056990;28;20554;-80
2022/04/11 04:34:53;;;;;;;9.47;4.87;;;4.90;83.30;;;;;;5057024;28;20052;-81
2022/04/11 04:37:20;;;;;;;11.57;5.40;;;4.90;83.30;;;;;;5040064;28;20033;-81
2022/04/11 04:39:46;;;;;;;9.27;5.50;;;4.90;83.40;;;;;;5074915;28;20025;-81
2022/04/11 04:42:11;;;;;;;9.37;4.83;;;4.90;83.40;;;;;;5056563;28;20538;-81
2022/04/11 04:44:40;;;;;;;9.87;5.33;;;4.80;83.40;;;;;;5056605;28;20025;-81
2022/04/11 04:47:07;;;;;;;9.87;5.00;;;4.90;83.50;;;;;;5056430;28;20028;-81
2022/04/11 04:49:33;;;;;;;9.73;5.10;;;4.80;83.50;;;;;;5056482;28;20033;-73
2022/04/11 04:51:59;;;;;;;10.63;6.27;;;4.80;83.60;;;;;;5067694;28;20032;-73
2022/04/11 04:54:24;;;;;;;9.97;5.43;;;4.90;83.70;;;;;;5075004;28;20115;-73
2022/04/11 04:56:50;;;;;;;11.07;5.47;;;4.80;83.80;;;;;;5075494;28;20024;-73
2022/04/11 04:59:16;;;;;;;12.77;5.67;;;4.90;83.90;;;;;;5076754;28;20024;-73
2022/04/11 05:01:41;;;;;;;12.77;5.63;;;4.80;83.80;;;;;;5094622;28;20032;-73
2022/04/11 05:04:07;;;;;;;13.47;5.10;;;4.80;83.90;;;;;;5055592;28;20041;-73
2022/04/11 05:06:33;;;;;;;14.43;5.40;;;4.80;83.90;;;;;;5072647;28;20032;-73
2022/04/11 05:08:59;;;;;;;9.80;4.90;;;4.80;84.00;;;;;;5056007;28;20024;-73
2022/04/11 05:11:25;;;;;;;11.33;5.83;;;4.80;84.00;;;;;;5075779;28;20043;-73
2022/04/11 05:13:51;;;;;;;10.23;5.73;;;5.00;84.30;;;;;;5076054;28;20024;-73
2022/04/11 05:16:18;;;;;;;11.20;5.30;;;4.80;84.20;;;;;;5059804;28;20024;-73
2022/04/11 05:18:47;;;;;;;10.97;5.87;;;4.90;84.40;;;;;;5075637;28;20039;-73
2022/04/11 05:21:13;;;;;;;13.07;6.57;;;4.90;84.70;;;;;;5075468;28;20032;-73
2022/04/11 05:23:39;;;;;;;10.77;5.47;;;4.80;84.70;;;;;;5058988;28;20035;-73
2022/04/11 05:26:07;;;;;;;11.13;5.83;;;4.90;84.80;;;;;;5076133;28;20032;-73
2022/04/11 05:28:33;;;;;;;13.90;6.60;;;5.00;85.00;;;;;;5059402;28;20020;-73
2022/04/11 05:30:59;;;;;;;11.70;5.50;;;5.00;85.00;;;;;;5094050;28;20020;-73
2022/04/11 05:33:25;;;;;;;11.37;5.53;;;5.10;85.10;;;;;;5093611;28;20107;-72
2022/04/11 05:35:52;;;;;;;10.90;6.00;;;5.10;85.10;;;;;;5093324;28;20510;-73
2022/04/11 05:38:19;;;;;;;8.17;5.43;;;5.10;84.90;;;;;;5075746;28;20024;-73
2022/04/11 05:40:45;;;;;;;11.37;6.37;;;5.10;84.90;;;;;;5084432;28;20024;-73
2022/04/11 05:43:13;;;;;;;10.43;5.87;;;5.20;84.90;;;;;;5091502;28;20028;-73
2022/04/11 05:45:42;;;;;;;10.73;6.00;;;5.20;84.80;;;;;;5088925;28;20024;-73
2022/04/11 05:48:08;;;;;;;16.47;6.73;;;5.20;84.80;;;;;;5074166;28;20384;-73
2022/04/11 05:50:34;;;;;;;11.00;5.90;;;5.20;84.70;;;;;;5069991;28;20036;-73
2022/04/11 05:53:01;;;;;;;11.63;5.97;;;5.20;84.70;;;;;;5073347;28;20028;-73
2022/04/11 05:55:27;;;;;;;11.63;5.77;;;5.20;84.70;;;;;;5073792;28;20356;-73
2022/04/11 05:57:53;;;;;;;10.90;6.13;;;5.20;84.70;;;;;;5091555;28;20054;-73
2022/04/11 06:00:19;;;;;;;14.10;6.40;;;5.20;84.80;;;;;;5073678;28;20480;-73
2022/04/11 06:02:45;;;;;;;11.57;6.47;;;5.20;84.80;;;;;;5092351;28;20028;-73
2022/04/11 06:05:11;;;;;;;12.97;6.20;;;5.30;84.90;;;;;;5072541;28;20105;-73
2022/04/11 06:07:38;;;;;;;24.37;7.90;;;5.30;85.10;;;;;;5081716;28;20372;-73
2022/04/11 06:10:05;;;;;;;14.17;6.50;;;5.30;85.10;;;;;;5081468;28;20504;-73
2022/04/11 06:12:30;;;;;;;9.97;6.20;;;5.30;85.00;;;;;;5081407;28;20107;-74
2022/04/11 06:14:56;;;;;;;13.33;6.47;;;5.30;85.00;;;;;;5099957;28;20102;-73
2022/04/11 06:17:23;;;;;;;11.97;6.63;;;5.40;85.00;;;;;;5081512;28;20073;-74
2022/04/11 06:19:56;;;;;;;12.37;6.50;;;5.40;84.90;;;;;;5064224;28;20533;-73
2022/04/11 06:22:23;;;;;;;13.57;6.75;;;5.40;85.30;;;;;;5064726;28;20395;-73
2022/04/11 06:24:49;;;;;;;9.20;6.13;;;5.40;85.10;;;;;;5064908;28;20475;-74
2022/04/11 06:27:16;;;;;;;9.30;6.57;;;5.40;85.10;;;;;;5064556;28;20028;-73
2022/04/11 06:29:42;;;;;;;13.33;7.33;;;5.50;85.20;;;;;;5081674;28;20024;-74
2022/04/11 06:32:08;;;;;;;10.93;5.73;;;5.30;85.00;;;;;;5064890;28;20031;-73
2022/04/11 06:34:37;;;;;;;12.57;6.90;;;5.50;85.20;;;;;;5065008;28;20518;-74
2022/04/11 06:37:04;;;;;;;10.50;7.20;;;5.50;85.30;;;;;;5064640;28;20084;-74
2022/04/11 06:39:30;;;;;;;11.73;6.50;;;5.60;85.30;;;;;;5099967;28;20027;-74
2022/04/11 06:41:56;;;;;;;11.27;7.57;;;5.60;85.40;;;;;;5081533;28;20027;-73
2022/04/11 06:44:22;;;;;;;13.83;7.07;;;5.60;85.40;;;;;;5081438;28;20042;-74
2022/04/11 06:46:48;;;;;;;10.97;7.43;;;5.70;85.50;;;;;;5064773;28;20114;-73
2022/04/11 06:49:14;;;;;;;12.67;6.47;;;5.70;85.60;;;;;;5081756;28;20104;-74
2022/04/11 06:51:40;;;;;;;12.17;6.77;;;5.80;85.70;;;;;;5099675;28;20020;-74
2022/04/11 06:54:06;;;;;;;11.87;8.00;;;5.80;85.80;;;;;;5065127;28;20024;-74
2022/04/11 06:56:31;;;;;;;12.23;7.73;;;5.90;86.50;;;;;;5081474;28;20354;-73
2022/04/11 06:58:57;;;;;;;10.47;6.30;;;5.90;85.90;;;;;;5064633;28;20035;-74
2022/04/11 07:01:23;;;;;;;11.70;7.50;;;6.00;85.90;;;;;;5081565;28;20069;-74
2022/04/11 07:03:49;;;;;;;14.53;7.57;;;6.00;85.70;;;;;;5064070;28;20024;-73
2022/04/11 07:06:14;;;;;;;12.53;6.87;;;6.10;85.80;;;;;;5080971;28;20020;-73
2022/04/11 07:08:40;;;;;;;14.43;6.73;;;6.10;85.70;;;;;;5080978;28;20085;-74
2022/04/11 07:11:06;;;;;;;13.27;6.77;;;6.30;85.80;;;;;;5081113;28;20494;-74
2022/04/11 07:13:33;;;;;;;13.23;6.53;;;6.30;85.60;;;;;;5064806;28;20499;-74
2022/04/11 07:15:59;;;;;;;12.07;6.77;;;6.40;85.60;;;;;;5079340;28;20024;-74
2022/04/11 07:18:27;;;;;;;10.70;6.93;;;6.50;85.40;;;;;;5078668;28;20036;-73
2022/04/11 07:20:53;;;;;;;20.33;7.03;;;6.60;85.20;;;;;;5078512;28;20031;-73
2022/04/11 07:23:19;;;;;;;11.60;6.40;;;6.70;85.10;;;;;;5096428;28;20057;-74
2022/04/11 07:25:44;;;;;;;15.23;6.20;;;6.70;84.90;;;;;;5061208;28;20119;-74
2022/04/11 07:28:10;;;;;;;11.20;6.20;;;6.80;84.60;;;;;;5095242;28;20111;-73
2022/04/11 07:30:36;;;;;;;11.90;6.50;;;6.90;84.40;;;;;;5077814;28;20016;-81
2022/04/11 07:33:02;;;;;;;10.13;6.30;;;7.00;84.10;;;;;;5077934;28;20577;-80
2022/04/11 07:35:27;;;;;;;10.80;5.80;;;7.10;83.30;;;;;;5078074;28;20065;-80
2022/04/11 07:37:53;;;;;;;11.23;5.93;;;7.10;82.90;;;;;;5095969;28;20082;-80
2022/04/11 07:40:19;;;;;;;13.20;6.60;;;7.20;82.90;;;;;;5095946;28;20032;-80
2022/04/11 07:42:44;;;;;;;9.03;5.33;;;7.30;82.90;;;;;;5077612;28;20036;-80
2022/04/11 07:45:10;;;;;;;14.50;5.50;;;7.40;82.70;;;;;;5077765;28;20052;-80
2022/04/11 07:47:36;;;;;;;10.23;5.03;;;7.40;82.50;;;;;;5095698;28;20035;-80
2022/04/11 07:50:02;;;;;;;9.47;5.10;;;7.50;82.40;;;;;;5077395;28;20107;-80
2022/04/11 07:52:28;;;;;;;10.53;5.37;;;7.60;82.20;;;;;;5077703;28;20028;-80
2022/04/11 07:54:54;;;;;;;12.43;6.13;;;7.60;82.60;;;;;;5095560;28;20038;-80
2022/04/11 07:57:19;;;;;;;13.23;5.07;;;7.70;82.00;;;;;;5077321;28;20107;-81
2022/04/11 07:59:45;;;;;;;11.50;5.63;;;7.80;81.60;;;;;;5060702;28;20055;-80
2022/04/11 08:02:11;;;;;;;9.30;5.50;;;7.90;81.40;;;;;;5077494;28;20028;-79
2022/04/11 08:04:36;;;;;;;8.83;5.27;;;8.00;81.40;;;;;;5095268;28;20048;-80
2022/04/11 08:07:02;;;;;;;9.97;5.20;;;8.20;81.40;;;;;;5043965;28;20024;-80
2022/04/11 08:09:29;;;;;;;9.80;5.67;;;8.20;81.10;;;;;;5095214;28;20362;-80
2022/04/11 08:11:54;;;;;;;14.23;5.27;;;8.30;80.90;;;;;;5077274;28;20028;-80
2022/04/11 08:14:20;;;;;;;11.33;6.00;;;8.40;80.70;;;;;;5095267;28;20035;-80
2022/04/11 08:16:46;;;;;;;11.70;5.53;;;8.40;80.50;;;;;;5095208;28;20023;-81
2022/04/11 08:19:12;;;;;;;10.07;5.97;;;8.60;80.50;;;;;;5095210;28;20028;-80
2022/04/11 08:21:38;;;;;;;11.27;5.87;;;8.60;80.50;;;;;;5076665;28;20472;-80
2022/04/11 08:24:04;;;;;;;14.83;6.07;;;8.70;80.30;;;;;;5076910;28;20119;-80
2022/04/11 08:26:30;;;;;;;12.67;7.10;;;8.80;80.30;;;;;;5077019;28;20488;-81
2022/04/11 08:28:56;;;;;;;10.40;6.77;;;8.90;80.50;;;;;;5075752;28;20116;-80
2022/04/11 08:31:21;;;;;;;12.90;6.50;;;9.00;79.80;;;;;;5077035;28;20404;-80
2022/04/11 08:33:47;;;;;;;15.27;6.47;;;9.10;79.70;;;;;;5094873;28;20052;-80
2022/04/11 08:36:13;;;;;;;10.43;6.33;;;9.20;79.60;;;;;;5076692;28;20385;-80
2022/04/11 08:38:38;;;;;;;10.13;5.90;;;9.30;79.40;;;;;;5076671;28;20036;-80
2022/04/11 08:41:08;;;;;;;8.20;5.13;;;9.30;79.30;;;;;;5076571;28;20085;-80
2022/04/11 08:43:36;;;;;;;10.87;5.40;;;9.50;79.00;;;;;;5094633;28;20038;-80
2022/04/11 08:46:05;;;;;;;9.40;5.73;;;9.50;78.60;;;;;;5076476;28;20069;-80
2022/04/11 08:48:31;;;;;;;10.43;5.40;;;9.70;78.50;;;;;;5075949;28;20472;-81
2022/04/11 08:50:58;;;;;;;20.77;8.00;;;9.70;78.40;;;;;;5076544;28;20081;-81
2022/04/11 08:53:24;;;;;;;8.47;5.70;;;9.90;78.40;;;;;;5094236;28;20032;-80
2022/04/11 08:55:50;;;;;;;9.90;6.17;;;9.90;78.40;;;;;;5099776;28;20108;-81
2022/04/11 08:58:16;;;;;;;9.10;5.23;;;10.00;78.20;;;;;;5087589;28;20020;-81
2022/04/11 09:00:42;;;;;;;10.83;5.30;;;10.10;77.80;;;;;;5086777;28;20484;-81
2022/04/11 09:03:08;;;;;;;11.33;5.20;;;10.30;77.60;;;;;;5092968;28;20114;-81
2022/04/11 09:05:34;;;;;;;8.00;4.15;;;10.40;77.40;;;;;;5075946;28;20055;-81
2022/04/11 09:08:01;;;;;;;8.90;4.28;;;10.50;76.90;;;;;;5076218;28;20114;-81
2022/04/11 09:10:32;;;;;;;13.40;4.40;;;10.60;76.50;;;;;;5076033;28;20024;-81
2022/04/11 09:13:00;;;;;;;7.82;3.97;;;10.70;76.90;;;;;;5076693;28;20396;-81
2022/04/11 09:15:28;;;;;;;7.63;4.03;;;10.80;76.00;;;;;;5090915;28;20028;-81
2022/04/11 09:17:56;;;;;;;6.78;3.97;;;11.00;75.80;;;;;;5066345;28;20044;-80
2022/04/11 09:20:27;;;;;;;10.82;3.85;;;11.00;75.60;;;;;;5072736;28;20544;-80
2022/04/11 09:22:53;;;;;;;7.38;3.90;;;11.10;75.20;;;;;;5055642;28;20093;-80
2022/04/11 09:25:21;;;;;;;6.93;3.72;;;11.30;74.90;;;;;;5055850;28;20103;-81
2022/04/11 09:27:48;;;;;;;8.85;3.50;;;11.40;74.70;;;;;;5078312;28;20028;-81
2022/04/11 09:30:19;;;;;;;6.50;3.33;;;11.60;74.40;;;;;;5057123;28;20020;-79
2022/04/11 09:33:03;;;;;;;9.90;3.20;;;11.70;72.70;;;;;;5093701;28;20028;-80
2022/04/11 09:35:35;;;;;;;6.68;2.90;;;11.90;71.80;;;;;;5093312;28;20079;-81
2022/04/11 09:38:20;;;;;;;10.55;3.30;;;11.90;71.10;;;;;;5075561;28;20028;-80
2022/04/11 09:40:53;;;;;;;9.00;2.83;;;12.10;70.60;;;;;;5093308;28;20123;-80
2022/04/11 09:43:27;;;;;;;9.17;2.57;;;12.10;69.70;;;;;;5093557;28;20077;-80
2022/04/11 09:45:53;;;;;;;6.63;2.42;;;12.30;68.80;;;;;;5075483;28;20274;-82
2022/04/11 09:48:24;;;;;;;8.00;2.72;;;12.30;67.20;;;;;;5058929;28;20043;-80
2022/04/11 09:50:51;;;;;;;10.38;2.78;;;12.50;66.50;;;;;;5093590;28;20085;-79
2022/04/11 09:53:20;;;;;;;6.95;2.70;;;12.50;65.60;;;;;;5075388;28;20036;-80
2022/04/11 09:55:52;;;;;;;9.20;2.92;;;12.60;64.80;;;;;;5093574;28;20028;-81
2022/04/11 09:58:23;;;;;;;7.68;2.70;;;12.70;65.20;;;;;;5093400;28;20024;-79
2022/04/11 10:00:51;;;;;;;8.82;2.50;;;12.80;64.50;;;;;;5093480;28;20024;-77
2022/04/11 10:03:17;;;;;;;6.50;2.08;;;12.90;62.90;;;;;;5093534;28;20060;-81
2022/04/11 10:05:43;;;;;;;5.07;2.00;;;13.00;63.00;;;;;;5093365;28;20052;-80
2022/04/11 10:08:10;;;;;;;5.43;1.92;;;13.00;62.90;;;;;;5092992;28;20024;-80
2022/04/11 10:10:41;;;;;;;4.38;1.63;;;13.20;63.30;;;;;;5058722;28;20028;-82
2022/04/11 10:13:11;;;;;;;6.07;1.77;;;13.40;62.40;;;;;;5075113;28;20035;-81
2022/04/11 10:15:38;;;;;;;7.78;1.98;;;13.70;62.40;;;;;;5092503;28;20036;-81
2022/04/11 10:18:07;;;;;;;5.25;1.40;;;13.90;60.70;;;;;;5074825;28;20028;-81
2022/04/11 10:20:38;;;;;;;5.57;1.30;;;14.30;60.60;;;;;;5074919;28;20027;-81
2022/04/11 10:23:13;;;;;;;4.15;1.05;;;14.70;60.10;;;;;;5058203;28;20070;-80
2022/04/11 10:25:50;;;;;;;3.50;1.10;;;15.20;59.90;;;;;;5093069;28;20069;-81
2022/04/11 10:28:22;;;;;;;6.88;1.38;;;15.70;59.60;;;;;;5058380;28;20016;-81
2022/04/11 10:31:05;;;;;;;4.45;1.40;;;16.30;57.60;;;;;;5075009;28;20023;-80
2022/04/11 10:33:40;;;;;;;5.35;1.92;;;16.90;54.50;;;;;;5093069;28;20031;-83
2022/04/11 10:36:25;;;;;;;7.63;1.35;;;17.50;53.70;;;;;;5058109;28;20031;-83
2022/04/11 10:39:12;;;;;;;3.85;1.20;;;18.20;53.00;;;;;;5073151;28;20089;-74
2022/04/11 10:41:56;;;;;;;4.03;1.30;;;18.90;52.90;;;;;;5073130;28;20078;-75
2022/04/11 10:44:36;;;;;;;7.78;1.75;;;19.50;51.80;;;;;;5092948;28;20028;-75
2022/04/11 10:47:08;;;;;;;4.68;1.10;;;20.10;50.50;;;;;;5081673;28;20054;-75
2022/04/11 10:49:49;;;;;;;4.55;1.50;;;20.40;51.10;;;;;;5089267;28;20036;-75
2022/04/11 10:52:27;;;;;;;5.95;1.20;;;20.50;50.50;;;;;;5056470;28;20091;-74
2022/04/11 10:54:55;;;;;;;5.32;1.77;;;20.60;50.10;;;;;;5057540;28;20028;-74
2022/04/11 10:57:34;;;;;;;5.03;1.20;;;20.50;49.70;;;;;;5075813;28;20016;-74
2022/04/11 11:00:12;;;;;;;6.90;1.73;;;20.40;48.80;;;;;;5057787;28;20033;-75
2022/04/11 11:02:53;;;;;;;4.78;1.27;;;20.40;48.50;;;;;;5075629;28;20571;-76
2022/04/11 11:05:32;;;;;;;3.55;1.33;;;20.40;48.00;;;;;;5057498;28;20051;-74
2022/04/11 11:08:09;;;;;;;4.90;1.23;;;20.30;47.60;;;;;;5075688;28;20104;-74
2022/04/11 11:10:40;;;;;;;2.78;1.10;;;20.30;47.00;;;;;;5057349;28;20385;-74
2022/04/11 11:13:27;;;;;;;5.20;1.33;;;20.30;46.70;;;;;;5090452;28;20031;-75
2022/04/11 11:16:14;;;;;;;3.30;1.30;;;20.30;46.10;;;;;;5094400;28;20460;-75
2022/04/11 11:18:48;;;;;;;4.70;1.15;;;20.40;45.80;;;;;;5114820;27;20043;-74
2022/04/11 11:21:21;;;;;;;4.97;1.40;;;20.40;45.80;;;;;;5094370;28;20043;-74
2022/04/11 11:24:11;;;;;;;5.63;1.10;;;20.40;45.50;;;;;;5094228;28;20020;-74
2022/04/11 11:26:58;;;;;;;2.30;0.95;;;20.40;45.00;;;;;;5095571;28;20024;-75
2022/04/11 11:29:27;;;;;;;3.65;1.17;;;20.40;44.70;;;;;;5095456;28;20026;-75
2022/04/11 11:32:01;;;;;;;3.97;1.05;;;20.40;44.80;;;;;;5095235;28;20016;-75
2022/04/11 11:34:28;;;;;;;;;;;20.50;44.70;;;;;;5094499;28;20683;-75
2022/04/11 11:37:13;;;;;;;5.20;1.33;;;20.60;44.40;;;;;;5095633;28;19999;-76
2022/04/11 11:39:41;;;;;;;5.78;1.75;;;20.60;44.40;;;;;;5078047;28;20017;-74
2022/04/11 11:42:14;;;;;;;5.18;1.38;;;20.70;44.60;;;;;;5095169;28;20021;-75
2022/04/11 11:44:45;;;;;;;6.03;1.83;;;20.80;44.60;;;;;;5095981;28;20136;-76
2022/04/11 11:47:11;;;;;;;6.07;1.70;;;20.90;44.40;;;;;;5094572;28;20059;-75
2022/04/11 11:49:45;;;;;;;5.53;1.98;;;21.00;44.30;;;;;;5094712;28;20020;-75
2022/04/11 11:52:21;;;;;;;5.10;1.60;;;21.10;44.20;;;;;;5095775;28;20027;-75
2022/04/11 11:54:48;;;;;;;3.70;1.73;;;21.20;44.10;;;;;;5094234;28;20430;-74
2022/04/11 11:57:19;;;;;;;4.82;1.85;;;21.30;44.30;;;;;;5094408;28;20039;-76
2022/04/11 11:59:55;;;;;;;4.20;1.90;;;21.40;44.10;;;;;;5094563;28;20422;-76
2022/04/11 12:05:15;;;;;;;5.20;1.42;;;21.40;43.30;;;;;;5095558;28;20518;-76
2022/04/11 12:07:41;;;;;;;4.07;1.30;;;21.60;43.00;;;;;;5094034;28;20081;-76
2022/04/11 12:10:10;;;;;;;4.68;1.40;;;21.70;43.40;;;;;;5095448;28;20024;-76
2022/04/11 12:12:37;;;;;;;3.67;1.40;;;21.90;42.50;;;;;;5060449;28;20032;-75
2022/04/11 12:15:06;;;;;;;4.10;1.67;;;22.00;42.10;;;;;;5077127;28;20107;-75
2022/04/11 12:17:47;;;;;;;3.25;1.30;;;22.20;41.80;;;;;;5076507;28;20024;-75
2022/04/11 12:20:19;;;;;;;5.70;1.90;;;22.40;41.70;;;;;;5073862;28;20364;-75
2022/04/11 12:23:10;;;;;;;4.43;1.40;;;22.60;41.60;;;;;;5076514;28;20119;-76
2022/04/11 12:25:50;;;;;;;5.93;1.90;;;22.90;41.20;;;;;;5094623;28;20059;-75
2022/04/11 12:28:23;;;;;;;3.95;1.65;;;23.10;41.10;;;;;;5076814;28;20031;-76
2022/04/11 12:31:12;;;;;;;3.70;1.52;;;23.20;40.60;;;;;;5094220;28;20038;-77
2022/04/11 12:33:43;;;;;;;3.72;1.55;;;23.30;40.20;;;;;;5095014;28;20024;-76
2022/04/11 12:36:11;;;;;;;4.10;1.65;;;23.50;40.40;;;;;;5076620;28;20024;-76
2022/04/11 12:38:51;;;;;;;5.43;2.00;;;23.60;39.80;;;;;;5076302;28;20031;-76
2022/04/11 12:41:36;;;;;;;5.43;1.92;;;23.70;39.10;;;;;;5076361;28;20029;-76
2022/04/11 12:44:18;;;;;;;4.20;1.95;;;23.90;38.90;;;;;;5076571;28;20028;-76
2022/04/11 12:47:03;;;;;;;4.75;1.98;;;24.10;38.70;;;;;;5093443;28;20384;-83
2022/04/11 12:49:51;;;;;;;6.60;2.35;;;24.20;39.00;;;;;;5093318;28;20493;-82
2022/04/11 12:52:21;;;;;;;7.00;1.75;;;24.50;38.10;;;;;;5099121;28;20028;-75
2022/04/11 12:54:48;;;;;;;6.40;2.17;;;24.50;38.10;;;;;;5076170;28;20491;-77
2022/04/11 12:57:26;;;;;;;4.10;1.73;;;24.60;37.90;;;;;;5085835;28;20185;-76
2022/04/11 12:59:53;;;;;;;4.97;1.98;;;24.90;37.40;;;;;;5066432;28;20032;-76